sensor_id;sensor_type;location;lat;lon;timestamp;pressure;altitude;pressure_sealevel;temperature;humidity
29385;BME280;16367;48.736;9.218;2023-02-13T00:01:03;-23282.16;;;3.59;100.00
29385;BME280;16367;48.736;9.218;2023-02-13T00:03:06;-23282.00;;;3.59;100.00
29385;BME280;16367;48.736;9.218;2023-02-13T00:05:09;-23281.19;;;3.56;100.00
29385;BME280;16367;48.736;9.218;2023-02-13T00:07:12;-23284.06;;;3.65;100.00
29385;BME280;16367;48.736;9.218;2023-02-13T00:09:16;-23281.38;;;3.57;100.00
29385;BME280;16367;48.736;9.218;2023-02-13T00:11:19;-23278.03;;;3.46;100.00
29385;BME280;16367;48.736;9.218;2023-02-13T00:13:21;-23277.06;;;3.43;100.00
29385;BME280;16367;48.736;9.218;2023-02-13T00:15:24;-23275.16;;;3.37;100.00
29385;BME280;16367;48.736;9.218;2023-02-13T00:17:27;-23266.88;;;3.11;100.00
29385;BME280;16367;48.736;9.218;2023-02-13T00:19:30;-23264.63;;;3.04;100.00
29385;BME280;16367;48.736;9.218;2023-02-13T00:21:32;-23265.25;;;3.06;100.00
29385;BME280;16367;48.736;9.218;2023-02-13T00:23:36;-23264.63;;;3.04;100.00
29385;BME280;16367;48.736;9.218;2023-02-13T00:25:40;-23263.19;;;2.99;100.00
29385;BME280;16367;48.736;9.218;2023-02-13T00:27:43;-23263.66;;;3.01;100.00
29385;BME280;16367;48.736;9.218;2023-02-13T00:29:46;-23262.41;;;2.97;100.00
29385;BME280;16367;48.736;9.218;2023-02-13T00:31:48;-23264.16;;;3.03;100.00
29385;BME280;16367;48.736;9.218;2023-02-13T00:33:51;-23266.88;;;3.11;100.00
29385;BME280;16367;48.736;9.218;2023-02-13T00:36:01;-23264.94;;;3.05;100.00
29385;BME280;16367;48.736;9.218;2023-02-13T00:38:04;-23267.19;;;3.12;100.00
29385;BME280;16367;48.736;9.218;2023-02-13T00:40:08;-23273.88;;;3.33;100.00
29385;BME280;16367;48.736;9.218;2023-02-13T00:42:12;-23266.88;;;3.11;100.00
29385;BME280;16367;48.736;9.218;2023-02-13T00:44:14;-23268.44;;;3.16;100.00
29385;BME280;16367;48.736;9.218;2023-02-13T00:46:17;-23265.25;;;3.06;100.00
29385;BME280;16367;48.736;9.218;2023-02-13T00:48:20;-23269.09;;;3.18;100.00
29385;BME280;16367;48.736;9.218;2023-02-13T00:50:23;-23270.03;;;3.21;100.00
29385;BME280;16367;48.736;9.218;2023-02-13T00:52:25;-23266.38;;;3.10;100.00
29385;BME280;16367;48.736;9.218;2023-02-13T00:54:28;-23267.97;;;3.15;100.00
29385;BME280;16367;48.736;9.218;2023-02-13T00:56:30;-23266.22;;;3.09;100.00
29385;BME280;16367;48.736;9.218;2023-02-13T00:58:35;-23268.13;;;3.15;100.00
29385;BME280;16367;48.736;9.218;2023-02-13T01:00:38;-23263.03;;;2.99;100.00
29385;BME280;16367;48.736;9.218;2023-02-13T01:02:41;-23261.44;;;2.94;100.00
29385;BME280;16367;48.736;9.218;2023-02-13T01:04:43;-23260.31;;;2.90;100.00
29385;BME280;16367;48.736;9.218;2023-02-13T01:06:47;-23261.75;;;2.95;100.00
29385;BME280;16367;48.736;9.218;2023-02-13T01:08:50;-23262.72;;;2.98;100.00
29385;BME280;16367;48.736;9.218;2023-02-13T01:10:53;-23258.56;;;2.85;100.00
29385;BME280;16367;48.736;9.218;2023-02-13T01:12:56;-23253.94;;;2.70;100.00
29385;BME280;16367;48.736;9.218;2023-02-13T01:15:00;-23253.63;;;2.69;100.00
29385;BME280;16367;48.736;9.218;2023-02-13T01:17:03;-23253.16;;;2.68;100.00
29385;BME280;16367;48.736;9.218;2023-02-13T01:19:06;-23252.19;;;2.65;100.00
29385;BME280;16367;48.736;9.218;2023-02-13T01:21:15;-23250.91;;;2.61;100.00
29385;BME280;16367;48.736;9.218;2023-02-13T01:23:17;-23249.63;;;2.57;100.00
29385;BME280;16367;48.736;9.218;2023-02-13T01:25:20;-23250.44;;;2.59;100.00
29385;BME280;16367;48.736;9.218;2023-02-13T01:27:23;-23249.31;;;2.56;100.00
29385;BME280;16367;48.736;9.218;2023-02-13T01:29:26;-23251.06;;;2.61;100.00
29385;BME280;16367;48.736;9.218;2023-02-13T01:31:30;-23252.50;;;2.66;100.00
29385;BME280;16367;48.736;9.218;2023-02-13T01:33:33;-23252.19;;;2.65;100.00
29385;BME280;16367;48.736;9.218;2023-02-13T01:35:37;-23256.34;;;2.78;100.00
29385;BME280;16367;48.736;9.218;2023-02-13T01:37:40;-23249.78;;;2.57;100.00
29385;BME280;16367;48.736;9.218;2023-02-13T01:39:43;-23247.09;;;2.49;100.00
29385;BME280;16367;48.736;9.218;2023-02-13T01:41:46;-23245.19;;;2.43;100.00
29385;BME280;16367;48.736;9.218;2023-02-13T01:43:51;-23246.78;;;2.48;100.00
29385;BME280;16367;48.736;9.218;2023-02-13T01:45:55;-23247.88;;;2.51;100.00
29385;BME280;16367;48.736;9.218;2023-02-13T01:48:02;-23245.00;;;2.42;100.00
29385;BME280;16367;48.736;9.218;2023-02-13T01:50:09;-23243.91;;;2.39;100.00
29385;BME280;16367;48.736;9.218;2023-02-13T01:52:13;-23247.72;;;2.51;100.00
29385;BME280;16367;48.736;9.218;2023-02-13T01:54:20;-23246.78;;;2.48;100.00
29385;BME280;16367;48.736;9.218;2023-02-13T01:56:27;-23245.19;;;2.43;100.00
29385;BME280;16367;48.736;9.218;2023-02-13T01:58:33;-23247.09;;;2.49;100.00
29385;BME280;16367;48.736;9.218;2023-02-13T02:00:38;-23246.44;;;2.47;100.00
29385;BME280;16367;48.736;9.218;2023-02-13T02:02:43;-23245.19;;;2.43;100.00
29385;BME280;16367;48.736;9.218;2023-02-13T02:04:49;-23241.66;;;2.32;100.00
29385;BME280;16367;48.736;9.218;2023-02-13T02:06:54;-23241.50;;;2.31;100.00
29385;BME280;16367;48.736;9.218;2023-02-13T02:09:02;-23239.75;;;2.25;100.00
29385;BME280;16367;48.736;9.218;2023-02-13T02:11:12;-23238.47;;;2.21;100.00
29385;BME280;16367;48.736;9.218;2023-02-13T02:13:20;-23241.34;;;2.31;100.00
29385;BME280;16367;48.736;9.218;2023-02-13T02:15:23;-23240.56;;;2.28;100.00
29385;BME280;16367;48.736;9.218;2023-02-13T02:17:26;-23240.22;;;2.27;100.00
29385;BME280;16367;48.736;9.218;2023-02-13T02:19:35;-23240.38;;;2.28;100.00
29385;BME280;16367;48.736;9.218;2023-02-13T02:21:59;-23238.47;;;2.21;100.00
29385;BME280;16367;48.736;9.218;2023-02-13T02:24:32;-23235.28;;;2.11;100.00
29385;BME280;16367;48.736;9.218;2023-02-13T02:27:08;-23231.78;;;2.00;100.00
29385;BME280;16367;48.736;9.218;2023-02-13T02:29:40;-23233.38;;;2.05;100.00
29385;BME280;16367;48.736;9.218;2023-02-13T02:32:02;-23231.78;;;2.00;100.00
29385;BME280;16367;48.736;9.218;2023-02-13T02:34:14;-23228.75;;;1.91;100.00
29385;BME280;16367;48.736;9.218;2023-02-13T02:36:32;-23230.19;;;1.95;100.00
29385;BME280;16367;48.736;9.218;2023-02-13T02:38:49;-23231.94;;;2.01;100.00
29385;BME280;16367;48.736;9.218;2023-02-13T02:40:59;-23231.63;;;2.00;100.00
29385;BME280;16367;48.736;9.218;2023-02-13T02:43:16;-23229.84;;;1.94;100.00
29385;BME280;16367;48.736;9.218;2023-02-13T02:45:32;-23227.63;;;1.87;100.00
29385;BME280;16367;48.736;9.218;2023-02-13T02:47:45;-23230.03;;;1.95;100.00
29385;BME280;16367;48.736;9.218;2023-02-13T02:50:15;-23225.06;;;1.79;100.00
29385;BME280;16367;48.736;9.218;2023-02-13T02:52:28;-23225.38;;;1.80;100.00
29385;BME280;16367;48.736;9.218;2023-02-13T02:54:37;-23226.50;;;1.84;100.00
29385;BME280;16367;48.736;9.218;2023-02-13T02:57:03;-23223.78;;;1.75;100.00
29385;BME280;16367;48.736;9.218;2023-02-13T02:59:12;-23225.06;;;1.79;100.00
29385;BME280;16367;48.736;9.218;2023-02-13T03:01:35;-23226.66;;;1.84;100.00
29385;BME280;16367;48.736;9.218;2023-02-13T03:03:58;-23223.16;;;1.73;100.00
29385;BME280;16367;48.736;9.218;2023-02-13T03:06:23;-23223.16;;;1.73;100.00
29385;BME280;16367;48.736;9.218;2023-02-13T03:08:28;-23221.88;;;1.69;100.00
29385;BME280;16367;48.736;9.218;2023-02-13T03:10:45;-23222.84;;;1.72;100.00
29385;BME280;16367;48.736;9.218;2023-02-13T03:13:10;-23221.25;;;1.67;100.00
29385;BME280;16367;48.736;9.218;2023-02-13T03:15:24;-23218.84;;;1.60;100.00
29385;BME280;16367;48.736;9.218;2023-02-13T03:17:28;-23218.06;;;1.57;100.00
29385;BME280;16367;48.736;9.218;2023-02-13T03:19:57;-23222.03;;;1.70;100.00
29385;BME280;16367;48.736;9.218;2023-02-13T03:22:27;-23219.81;;;1.63;100.00
29385;BME280;16367;48.736;9.218;2023-02-13T03:24:40;-23222.34;;;1.71;100.00
29385;BME280;16367;48.736;9.218;2023-02-13T03:26:50;-23224.75;;;1.78;100.00
29385;BME280;16367;48.736;9.218;2023-02-13T03:28:57;-23224.28;;;1.77;100.00
29385;BME280;16367;48.736;9.218;2023-02-13T03:31:24;-23224.91;;;1.79;100.00
29385;BME280;16367;48.736;9.218;2023-02-13T03:33:37;-23224.75;;;1.78;100.00
29385;BME280;16367;48.736;9.218;2023-02-13T03:35:48;-23225.06;;;1.79;100.00
29385;BME280;16367;48.736;9.218;2023-02-13T03:38:13;-23223.31;;;1.74;100.00
29385;BME280;16367;48.736;9.218;2023-02-13T03:40:21;-23222.69;;;1.72;100.00
29385;BME280;16367;48.736;9.218;2023-02-13T03:42:31;-23222.03;;;1.70;100.00
29385;BME280;16367;48.736;9.218;2023-02-13T03:44:40;-23221.41;;;1.68;100.00
29385;BME280;16367;48.736;9.218;2023-02-13T03:46:46;-23222.84;;;1.72;100.00
29385;BME280;16367;48.736;9.218;2023-02-13T03:48:50;-23223.16;;;1.73;100.00
29385;BME280;16367;48.736;9.218;2023-02-13T03:51:18;-23222.50;;;1.71;100.00
29385;BME280;16367;48.736;9.218;2023-02-13T03:53:23;-23220.13;;;1.64;100.00
29385;BME280;16367;48.736;9.218;2023-02-13T03:55:31;-23219.66;;;1.62;100.00
29385;BME280;16367;48.736;9.218;2023-02-13T03:57:53;-23221.88;;;1.69;100.00
29385;BME280;16367;48.736;9.218;2023-02-13T04:00:16;-23222.19;;;1.70;100.00
29385;BME280;16367;48.736;9.218;2023-02-13T04:02:22;-23223.63;;;1.75;100.00
29385;BME280;16367;48.736;9.218;2023-02-13T04:04:28;-23223.94;;;1.76;100.00
29385;BME280;16367;48.736;9.218;2023-02-13T04:06:36;-23223.94;;;1.76;100.00
29385;BME280;16367;48.736;9.218;2023-02-13T04:08:40;-23226.81;;;1.85;100.00
29385;BME280;16367;48.736;9.218;2023-02-13T04:10:49;-23226.66;;;1.84;100.00
29385;BME280;16367;48.736;9.218;2023-02-13T04:12:59;-23223.63;;;1.75;100.00
29385;BME280;16367;48.736;9.218;2023-02-13T04:15:09;-23222.50;;;1.71;100.00
29385;BME280;16367;48.736;9.218;2023-02-13T04:17:18;-23220.13;;;1.64;100.00
29385;BME280;16367;48.736;9.218;2023-02-13T04:19:24;-23220.44;;;1.65;100.00
29385;BME280;16367;48.736;9.218;2023-02-13T04:21:31;-23221.88;;;1.69;100.00
29385;BME280;16367;48.736;9.218;2023-02-13T04:23:35;-23218.06;;;1.57;100.00
29385;BME280;16367;48.736;9.218;2023-02-13T04:25:40;-23219.16;;;1.61;100.00
29385;BME280;16367;48.736;9.218;2023-02-13T04:27:45;-23219.97;;;1.63;100.00
29385;BME280;16367;48.736;9.218;2023-02-13T04:29:47;-23219.97;;;1.63;100.00
29385;BME280;16367;48.736;9.218;2023-02-13T04:31:50;-23223.94;;;1.76;100.00
29385;BME280;16367;48.736;9.218;2023-02-13T04:33:53;-23222.84;;;1.72;100.00
29385;BME280;16367;48.736;9.218;2023-02-13T04:35:56;-23223.63;;;1.75;100.00
29385;BME280;16367;48.736;9.218;2023-02-13T04:37:58;-23221.56;;;1.68;100.00
29385;BME280;16367;48.736;9.218;2023-02-13T04:40:03;-23222.19;;;1.70;100.00
29385;BME280;16367;48.736;9.218;2023-02-13T04:42:06;-23220.13;;;1.64;100.00
29385;BME280;16367;48.736;9.218;2023-02-13T04:44:09;-23220.13;;;1.64;100.00
29385;BME280;16367;48.736;9.218;2023-02-13T04:46:11;-23220.44;;;1.65;100.00
29385;BME280;16367;48.736;9.218;2023-02-13T04:48:14;-23221.09;;;1.67;100.00
29385;BME280;16367;48.736;9.218;2023-02-13T04:50:17;-23220.94;;;1.66;100.00
29385;BME280;16367;48.736;9.218;2023-02-13T04:52:20;-23220.59;;;1.65;100.00
29385;BME280;16367;48.736;9.218;2023-02-13T04:54:23;-23219.97;;;1.63;100.00
29385;BME280;16367;48.736;9.218;2023-02-13T04:56:27;-23219.66;;;1.62;100.00
29385;BME280;16367;48.736;9.218;2023-02-13T04:58:29;-23217.09;;;1.54;100.00
29385;BME280;16367;48.736;9.218;2023-02-13T05:00:32;-23218.69;;;1.59;100.00
29385;BME280;16367;48.736;9.218;2023-02-13T05:02:35;-23217.72;;;1.56;100.00
29385;BME280;16367;48.736;9.218;2023-02-13T05:04:40;-23220.44;;;1.65;100.00
29385;BME280;16367;48.736;9.218;2023-02-13T05:06:42;-23219.00;;;1.60;100.00
29385;BME280;16367;48.736;9.218;2023-02-13T05:08:45;-23218.69;;;1.59;100.00
29385;BME280;16367;48.736;9.218;2023-02-13T05:10:48;-23217.25;;;1.55;100.00
29385;BME280;16367;48.736;9.218;2023-02-13T05:12:52;-23215.81;;;1.50;100.00
29385;BME280;16367;48.736;9.218;2023-02-13T05:14:55;-23216.44;;;1.52;100.00
29385;BME280;16367;48.736;9.218;2023-02-13T05:16:57;-23217.25;;;1.55;100.00
29385;BME280;16367;48.736;9.218;2023-02-13T05:19:00;-23218.53;;;1.59;100.00
29385;BME280;16367;48.736;9.218;2023-02-13T05:21:03;-23219.66;;;1.62;100.00
29385;BME280;16367;48.736;9.218;2023-02-13T05:23:24;-23219.50;;;1.62;100.00
29385;BME280;16367;48.736;9.218;2023-02-13T05:25:27;-23224.13;;;1.76;100.00
29385;BME280;16367;48.736;9.218;2023-02-13T05:27:29;-23224.28;;;1.77;100.00
29385;BME280;16367;48.736;9.218;2023-02-13T05:29:34;-23226.03;;;1.82;100.00
29385;BME280;16367;48.736;9.218;2023-02-13T05:31:35;-23227.63;;;1.87;100.00
29385;BME280;16367;48.736;9.218;2023-02-13T05:33:38;-23229.84;;;1.94;100.00
29385;BME280;16367;48.736;9.218;2023-02-13T05:35:41;-23225.72;;;1.81;100.00
29385;BME280;16367;48.736;9.218;2023-02-13T05:37:43;-23220.13;;;1.64;100.00
29385;BME280;16367;48.736;9.218;2023-02-13T05:39:46;-23217.72;;;1.56;100.00
29385;BME280;16367;48.736;9.218;2023-02-13T05:41:49;-23217.25;;;1.55;100.00
29385;BME280;16367;48.736;9.218;2023-02-13T05:43:52;-23218.53;;;1.59;100.00
29385;BME280;16367;48.736;9.218;2023-02-13T05:46:06;-23222.50;;;1.71;100.00
29385;BME280;16367;48.736;9.218;2023-02-13T05:48:10;-23227.47;;;1.87;100.00
29385;BME280;16367;48.736;9.218;2023-02-13T05:50:12;-23227.47;;;1.87;100.00
29385;BME280;16367;48.736;9.218;2023-02-13T05:52:15;-23228.41;;;1.90;100.00
29385;BME280;16367;48.736;9.218;2023-02-13T05:54:18;-23229.53;;;1.93;100.00
29385;BME280;16367;48.736;9.218;2023-02-13T05:56:21;-23225.38;;;1.80;100.00
29385;BME280;16367;48.736;9.218;2023-02-13T05:58:23;-23223.78;;;1.75;100.00
29385;BME280;16367;48.736;9.218;2023-02-13T06:00:26;-23221.09;;;1.67;100.00
29385;BME280;16367;48.736;9.218;2023-02-13T06:02:30;-23222.50;;;1.71;100.00
29385;BME280;16367;48.736;9.218;2023-02-13T06:04:33;-23225.56;;;1.81;100.00
29385;BME280;16367;48.736;9.218;2023-02-13T06:06:35;-23225.72;;;1.81;100.00
29385;BME280;16367;48.736;9.218;2023-02-13T06:08:38;-23228.59;;;1.90;100.00
29385;BME280;16367;48.736;9.218;2023-02-13T06:10:41;-23226.03;;;1.82;100.00
29385;BME280;16367;48.736;9.218;2023-02-13T06:12:45;-23228.91;;;1.91;100.00
29385;BME280;16367;48.736;9.218;2023-02-13T06:14:48;-23226.66;;;1.84;100.00
29385;BME280;16367;48.736;9.218;2023-02-13T06:16:50;-23224.28;;;1.77;100.00
29385;BME280;16367;48.736;9.218;2023-02-13T06:18:54;-23220.59;;;1.65;100.00
29385;BME280;16367;48.736;9.218;2023-02-13T06:20:57;-23216.13;;;1.51;100.00
29385;BME280;16367;48.736;9.218;2023-02-13T06:23:00;-23215.00;;;1.47;100.00
29385;BME280;16367;48.736;9.218;2023-02-13T06:25:04;-23215.66;;;1.49;100.00
29385;BME280;16367;48.736;9.218;2023-02-13T06:27:07;-23211.03;;;1.35;100.00
29385;BME280;16367;48.736;9.218;2023-02-13T06:29:09;-23214.22;;;1.45;100.00
29385;BME280;16367;48.736;9.218;2023-02-13T06:31:13;-23212.63;;;1.40;100.00
29385;BME280;16367;48.736;9.218;2023-02-13T06:33:16;-23211.66;;;1.37;100.00
29385;BME280;16367;48.736;9.218;2023-02-13T06:35:20;-23206.88;;;1.22;100.00
29385;BME280;16367;48.736;9.218;2023-02-13T06:37:23;-23206.25;;;1.20;100.00
29385;BME280;16367;48.736;9.218;2023-02-13T06:39:25;-23204.63;;;1.15;100.00
29385;BME280;16367;48.736;9.218;2023-02-13T06:41:28;-23207.69;;;1.24;100.00
29385;BME280;16367;48.736;9.218;2023-02-13T06:43:31;-23204.16;;;1.13;100.00
29385;BME280;16367;48.736;9.218;2023-02-13T06:45:33;-23207.69;;;1.24;100.00
29385;BME280;16367;48.736;9.218;2023-02-13T06:47:40;-23207.34;;;1.23;100.00
29385;BME280;16367;48.736;9.218;2023-02-13T06:49:43;-23205.75;;;1.18;100.00
29385;BME280;16367;48.736;9.218;2023-02-13T06:51:47;-23206.25;;;1.20;100.00
29385;BME280;16367;48.736;9.218;2023-02-13T06:53:49;-23204.97;;;1.16;100.00
29385;BME280;16367;48.736;9.218;2023-02-13T06:55:52;-23204.97;;;1.16;100.00
29385;BME280;16367;48.736;9.218;2023-02-13T06:57:55;-23204.31;;;1.14;100.00
29385;BME280;16367;48.736;9.218;2023-02-13T06:59:58;-23208.16;;;1.26;100.00
29385;BME280;16367;48.736;9.218;2023-02-13T07:02:01;-23209.13;;;1.29;100.00
29385;BME280;16367;48.736;9.218;2023-02-13T07:04:04;-23212.78;;;1.40;100.00
29385;BME280;16367;48.736;9.218;2023-02-13T07:06:06;-23211.19;;;1.35;100.00
29385;BME280;16367;48.736;9.218;2023-02-13T07:08:11;-23211.03;;;1.35;100.00
29385;BME280;16367;48.736;9.218;2023-02-13T07:10:14;-23211.03;;;1.35;100.00
29385;BME280;16367;48.736;9.218;2023-02-13T07:12:17;-23213.56;;;1.43;100.00
29385;BME280;16367;48.736;9.218;2023-02-13T07:14:19;-23212.47;;;1.39;100.00
29385;BME280;16367;48.736;9.218;2023-02-13T07:16:22;-23212.00;;;1.38;100.00
29385;BME280;16367;48.736;9.218;2023-02-13T07:18:25;-23215.00;;;1.47;100.00
29385;BME280;16367;48.736;9.218;2023-02-13T07:20:28;-23219.00;;;1.60;100.00
29385;BME280;16367;48.736;9.218;2023-02-13T07:22:31;-23218.38;;;1.58;100.00
29385;BME280;16367;48.736;9.218;2023-02-13T07:24:35;-23219.00;;;1.60;100.00
29385;BME280;16367;48.736;9.218;2023-02-13T07:26:39;-23218.06;;;1.57;100.00
29385;BME280;16367;48.736;9.218;2023-02-13T07:28:41;-23220.13;;;1.64;100.00
29385;BME280;16367;48.736;9.218;2023-02-13T07:30:44;-23227.78;;;1.88;100.00
29385;BME280;16367;48.736;9.218;2023-02-13T07:32:47;-23224.75;;;1.78;100.00
29385;BME280;16367;48.736;9.218;2023-02-13T07:34:49;-23226.50;;;1.84;100.00
29385;BME280;16367;48.736;9.218;2023-02-13T07:37:02;-23233.38;;;2.05;100.00
29385;BME280;16367;48.736;9.218;2023-02-13T07:39:05;-23226.03;;;1.82;100.00
29385;BME280;16367;48.736;9.218;2023-02-13T07:41:09;-23231.47;;;1.99;100.00
29385;BME280;16367;48.736;9.218;2023-02-13T07:43:12;-23238.16;;;2.20;100.00
29385;BME280;16367;48.736;9.218;2023-02-13T07:45:15;-23243.41;;;2.37;100.00
29385;BME280;16367;48.736;9.218;2023-02-13T07:47:17;-23246.44;;;2.47;100.00
29385;BME280;16367;48.736;9.218;2023-02-13T07:49:20;-23246.44;;;2.47;100.00
29385;BME280;16367;48.736;9.218;2023-02-13T07:51:23;-23245.81;;;2.45;100.00
29385;BME280;16367;48.736;9.218;2023-02-13T07:53:26;-23253.47;;;2.69;100.00
29385;BME280;16367;48.736;9.218;2023-02-13T07:55:29;-23257.63;;;2.82;100.00
29385;BME280;16367;48.736;9.218;2023-02-13T07:57:34;-23249.63;;;2.57;100.00
29385;BME280;16367;48.736;9.218;2023-02-13T07:59:37;-23275.31;;;3.38;100.00
29385;BME280;16367;48.736;9.218;2023-02-13T08:01:39;-23282.81;;;3.61;100.00
29385;BME280;16367;48.736;9.218;2023-02-13T08:03:42;-23297.94;;;4.09;100.00
29385;BME280;16367;48.736;9.218;2023-02-13T08:05:46;-23298.56;;;4.11;100.00
29385;BME280;16367;48.736;9.218;2023-02-13T08:07:51;-23310.19;;;4.48;100.00
29385;BME280;16367;48.736;9.218;2023-02-13T08:09:53;-23324.03;;;4.92;100.00
29385;BME280;16367;48.736;9.218;2023-02-13T08:12:14;-23326.59;;;5.00;100.00
29385;BME280;16367;48.736;9.218;2023-02-13T08:14:18;-23341.25;;;5.46;96.34
29385;BME280;16367;48.736;9.218;2023-02-13T08:16:21;-23356.84;;;5.95;93.81
29385;BME280;16367;48.736;9.218;2023-02-13T08:18:23;-23377.66;;;6.61;88.88
29385;BME280;16367;48.736;9.218;2023-02-13T08:20:26;-23332.66;;;5.19;93.34
29385;BME280;16367;48.736;9.218;2023-02-13T08:22:29;-23310.19;;;4.48;97.86
29385;BME280;16367;48.736;9.218;2023-02-13T08:24:32;-23314.97;;;4.63;99.45
29385;BME280;16367;48.736;9.218;2023-02-13T08:26:35;-23337.41;;;5.34;97.76
29385;BME280;16367;48.736;9.218;2023-02-13T08:28:37;-23363.66;;;6.17;90.16
29385;BME280;16367;48.736;9.218;2023-02-13T08:30:42;-23363.03;;;6.15;88.06
29385;BME280;16367;48.736;9.218;2023-02-13T08:32:44;-23374.63;;;6.52;86.50
29385;BME280;16367;48.736;9.218;2023-02-13T08:34:55;-23411.03;;;7.67;80.72
29385;BME280;16367;48.736;9.218;2023-02-13T08:36:57;-23393.41;;;7.11;79.94
29385;BME280;16367;48.736;9.218;2023-02-13T08:39:00;-23413.25;;;7.74;79.07
29385;BME280;16367;48.736;9.218;2023-02-13T08:41:03;-23392.75;;;7.09;79.70
29385;BME280;16367;48.736;9.218;2023-02-13T08:43:06;-23396.56;;;7.21;81.91
29385;BME280;16367;48.736;9.218;2023-02-13T08:45:09;-23344.59;;;5.57;85.62
29385;BME280;16367;48.736;9.218;2023-02-13T08:47:14;-23374.81;;;6.52;85.33
29385;BME280;16367;48.736;9.218;2023-02-13T08:49:16;-23374.81;;;6.52;85.59
29385;BME280;16367;48.736;9.218;2023-02-13T08:51:19;-23401.03;;;7.35;81.62
29385;BME280;16367;48.736;9.218;2023-02-13T08:53:22;-23374.00;;;6.50;80.48
29385;BME280;16367;48.736;9.218;2023-02-13T08:55:26;-23416.09;;;7.83;79.72
29385;BME280;16367;48.736;9.218;2023-02-13T08:57:29;-23435.81;;;8.46;74.60
29385;BME280;16367;48.736;9.218;2023-02-13T08:59:32;-23407.84;;;7.57;78.66
29385;BME280;16367;48.736;9.218;2023-02-13T09:01:35;-23414.22;;;7.77;75.99
29385;BME280;16367;48.736;9.218;2023-02-13T09:03:39;-23402.78;;;7.41;74.48
29385;BME280;16367;48.736;9.218;2023-02-13T09:05:42;-23420.88;;;7.98;72.47
29385;BME280;16367;48.736;9.218;2023-02-13T09:07:45;-23418.03;;;7.89;72.86
29385;BME280;16367;48.736;9.218;2023-02-13T09:09:47;-23426.13;;;8.15;72.96
29385;BME280;16367;48.736;9.218;2023-02-13T09:11:50;-23456.75;;;9.12;70.47
29385;BME280;16367;48.736;9.218;2023-02-13T09:13:54;-23483.38;;;9.97;66.95
29385;BME280;16367;48.736;9.218;2023-02-13T09:15:58;-23509.06;;;10.78;63.85
29385;BME280;16367;48.736;9.218;2023-02-13T09:18:01;-23444.53;;;8.73;67.35
29385;BME280;16367;48.736;9.218;2023-02-13T09:20:06;-23472.13;;;9.61;65.69
29385;BME280;16367;48.736;9.218;2023-02-13T09:22:09;-23419.75;;;7.95;68.74
29385;BME280;16367;48.736;9.218;2023-02-13T09:24:12;-23436.44;;;8.48;70.50
29385;BME280;16367;48.736;9.218;2023-02-13T09:26:16;-23486.72;;;10.07;66.53
29385;BME280;16367;48.736;9.218;2023-02-13T09:28:21;-23446.44;;;8.79;66.03
29385;BME280;16367;48.736;9.218;2023-02-13T09:30:23;-23430.09;;;8.27;70.21
29385;BME280;16367;48.736;9.218;2023-02-13T09:32:26;-23446.13;;;8.78;69.10
29385;BME280;16367;48.736;9.218;2023-02-13T09:34:29;-23467.69;;;9.47;68.24
29385;BME280;16367;48.736;9.218;2023-02-13T09:36:34;-23438.66;;;8.55;67.41
29385;BME280;16367;48.736;9.218;2023-02-13T09:38:37;-23496.38;;;10.38;65.61
29385;BME280;16367;48.736;9.218;2023-02-13T09:40:43;-23466.91;;;9.44;66.32
29385;BME280;16367;48.736;9.218;2023-02-13T09:42:48;-23438.66;;;8.55;70.06
29385;BME280;16367;48.736;9.218;2023-02-13T09:44:53;-23470.69;;;9.56;67.13
29385;BME280;16367;48.736;9.218;2023-02-13T09:46:57;-23534.88;;;11.60;61.38
29385;BME280;16367;48.736;9.218;2023-02-13T09:49:04;-23565.41;;;12.57;57.76
29385;BME280;16367;48.736;9.218;2023-02-13T09:51:13;-23572.03;;;12.79;56.49
29385;BME280;16367;48.736;9.218;2023-02-13T09:53:20;-23528.06;;;11.39;56.51
29385;BME280;16367;48.736;9.218;2023-02-13T09:55:27;-23528.69;;;11.41;56.72
29385;BME280;16367;48.736;9.218;2023-02-13T09:57:34;-23542.63;;;11.85;57.35
29385;BME280;16367;48.736;9.218;2023-02-13T09:59:46;-23560.03;;;12.40;57.61
29385;BME280;16367;48.736;9.218;2023-02-13T10:01:54;-23529.81;;;11.44;59.64
29385;BME280;16367;48.736;9.218;2023-02-13T10:04:17;-23550.84;;;12.11;56.58
29385;BME280;16367;48.736;9.218;2023-02-13T10:06:30;-23510.50;;;10.83;59.97
29385;BME280;16367;48.736;9.218;2023-02-13T10:08:52;-23493.53;;;10.29;59.28
29385;BME280;16367;48.736;9.218;2023-02-13T10:11:02;-23478.94;;;9.83;64.45
29385;BME280;16367;48.736;9.218;2023-02-13T10:13:22;-23452.94;;;9.00;65.20
29385;BME280;16367;48.736;9.218;2023-02-13T10:15:30;-23487.50;;;10.10;63.41
29385;BME280;16367;48.736;9.218;2023-02-13T10:17:41;-23467.06;;;9.45;65.46
29385;BME280;16367;48.736;9.218;2023-02-13T10:19:48;-23463.25;;;9.33;66.12
29385;BME280;16367;48.736;9.218;2023-02-13T10:21:53;-23482.44;;;9.94;64.04
29385;BME280;16367;48.736;9.218;2023-02-13T10:24:04;-23438.97;;;8.56;67.52
29385;BME280;16367;48.736;9.218;2023-02-13T10:26:11;-23451.66;;;8.96;67.90
29385;BME280;16367;48.736;9.218;2023-02-13T10:28:27;-23426.59;;;8.16;68.95
29385;BME280;16367;48.736;9.218;2023-02-13T10:30:35;-23408.81;;;7.60;71.75
29385;BME280;16367;48.736;9.218;2023-02-13T10:32:46;-23404.19;;;7.45;75.87
29385;BME280;16367;48.736;9.218;2023-02-13T10:34:52;-23408.81;;;7.60;73.44
29385;BME280;16367;48.736;9.218;2023-02-13T10:36:56;-23404.69;;;7.47;75.88
29385;BME280;16367;48.736;9.218;2023-02-13T10:39:07;-23388.16;;;6.95;77.16
29385;BME280;16367;48.736;9.218;2023-02-13T10:41:23;-23378.78;;;6.65;79.28
29385;BME280;16367;48.736;9.218;2023-02-13T10:43:28;-23388.47;;;6.96;78.46
29385;BME280;16367;48.736;9.218;2023-02-13T10:45:55;-23429.94;;;8.27;73.33
29385;BME280;16367;48.736;9.218;2023-02-13T10:48:05;-23456.44;;;9.11;71.04
29385;BME280;16367;48.736;9.218;2023-02-13T10:50:22;-23438.66;;;8.55;70.76
29385;BME280;16367;48.736;9.218;2023-02-13T10:52:36;-23417.22;;;7.87;71.44
29385;BME280;16367;48.736;9.218;2023-02-13T10:54:55;-23403.41;;;7.43;75.63
29385;BME280;16367;48.736;9.218;2023-02-13T10:57:08;-23391.34;;;7.05;75.06
29385;BME280;16367;48.736;9.218;2023-02-13T10:59:28;-23396.72;;;7.22;76.32
29385;BME280;16367;48.736;9.218;2023-02-13T11:01:38;-23396.25;;;7.20;76.43
29385;BME280;16367;48.736;9.218;2023-02-13T11:03:43;-23362.41;;;6.13;80.18